Taipak, Kazakhstan
Current Conditions -  °F | °C
As of 6:00 PM on Monday 26 Jan 2015 (Local Time) from UATG Reporting Station
Clear Clear  
Wind Chill: -6°   Ceiling: Unl
Heat Index: 10°   Visibility: 6mi
Dew Point:   Wind: 16mph
Humidity: 73%   Direction: 110°ESE
Pressure: 30.65"   Gusts: NA
Location:  49.05°N, 51.87°E
Report Text: UATG 261400Z 11007MPS CAVOK M12/M16 Q1038 R14/82//68 NOSIG RMKQFE781/1041
Loading
Personal Weather Stations






























Interactive Weather Map New forecast layout! Learn more

10-Day Weather Forecast

Advertisements
Track Severe Weather on mobile